sensor_id;sensor_type;location;lat;lon;timestamp;P1;durP1;ratioP1;P2;durP2;ratioP2
21166;SDS011;10741;52.272;9.580;2023-04-24T00:01:28;1.73;;;1.00;;
21166;SDS011;10741;52.272;9.580;2023-04-24T00:03:54;1.17;;;0.90;;
21166;SDS011;10741;52.272;9.580;2023-04-24T00:06:25;1.87;;;1.10;;
21166;SDS011;10741;52.272;9.580;2023-04-24T00:08:58;1.33;;;0.90;;
21166;SDS011;10741;52.272;9.580;2023-04-24T00:11:25;2.23;;;1.10;;
21166;SDS011;10741;52.272;9.580;2023-04-24T00:13:51;1.50;;;0.90;;
21166;SDS011;10741;52.272;9.580;2023-04-24T00:16:18;1.20;;;1.10;;
21166;SDS011;10741;52.272;9.580;2023-04-24T00:18:43;1.80;;;1.20;;
21166;SDS011;10741;52.272;9.580;2023-04-24T00:21:10;1.00;;;0.90;;
21166;SDS011;10741;52.272;9.580;2023-04-24T00:23:36;1.73;;;1.20;;
21166;SDS011;10741;52.272;9.580;2023-04-24T00:26:02;1.40;;;1.00;;
21166;SDS011;10741;52.272;9.580;2023-04-24T00:28:28;1.60;;;1.10;;
21166;SDS011;10741;52.272;9.580;2023-04-24T00:30:54;0.90;;;0.90;;
21166;SDS011;10741;52.272;9.580;2023-04-24T00:33:19;1.10;;;1.00;;
21166;SDS011;10741;52.272;9.580;2023-04-24T00:35:45;2.57;;;1.00;;
21166;SDS011;10741;52.272;9.580;2023-04-24T00:38:11;1.20;;;1.00;;
21166;SDS011;10741;52.272;9.580;2023-04-24T00:40:37;1.43;;;0.93;;
21166;SDS011;10741;52.272;9.580;2023-04-24T00:43:02;1.27;;;1.17;;
21166;SDS011;10741;52.272;9.580;2023-04-24T00:45:28;1.00;;;1.00;;
21166;SDS011;10741;52.272;9.580;2023-04-24T00:47:56;1.03;;;0.83;;
21166;SDS011;10741;52.272;9.580;2023-04-24T00:50:23;0.80;;;0.80;;
21166;SDS011;10741;52.272;9.580;2023-04-24T00:52:50;2.33;;;0.90;;
21166;SDS011;10741;52.272;9.580;2023-04-24T00:55:16;1.97;;;1.23;;
21166;SDS011;10741;52.272;9.580;2023-04-24T00:57:42;0.80;;;0.70;;
21166;SDS011;10741;52.272;9.580;2023-04-24T01:00:09;1.17;;;1.07;;
21166;SDS011;10741;52.272;9.580;2023-04-24T01:02:36;1.30;;;1.10;;
21166;SDS011;10741;52.272;9.580;2023-04-24T01:05:08;2.27;;;0.90;;
21166;SDS011;10741;52.272;9.580;2023-04-24T01:07:34;1.37;;;1.00;;
21166;SDS011;10741;52.272;9.580;2023-04-24T01:10:00;0.80;;;0.80;;
21166;SDS011;10741;52.272;9.580;2023-04-24T01:12:27;0.73;;;0.73;;
21166;SDS011;10741;52.272;9.580;2023-04-24T01:14:53;1.23;;;0.73;;
21166;SDS011;10741;52.272;9.580;2023-04-24T01:17:19;1.40;;;1.00;;
21166;SDS011;10741;52.272;9.580;2023-04-24T01:19:46;1.80;;;0.87;;
21166;SDS011;10741;52.272;9.580;2023-04-24T01:22:14;0.77;;;0.77;;
21166;SDS011;10741;52.272;9.580;2023-04-24T01:24:41;0.80;;;0.80;;
21166;SDS011;10741;52.272;9.580;2023-04-24T01:27:08;2.00;;;1.00;;
21166;SDS011;10741;52.272;9.580;2023-04-24T01:29:35;2.73;;;0.93;;
21166;SDS011;10741;52.272;9.580;2023-04-24T01:32:02;2.00;;;0.80;;
21166;SDS011;10741;52.272;9.580;2023-04-24T01:34:28;1.40;;;0.70;;
21166;SDS011;10741;52.272;9.580;2023-04-24T01:36:54;0.80;;;0.80;;
21166;SDS011;10741;52.272;9.580;2023-04-24T01:39:21;2.00;;;0.90;;
21166;SDS011;10741;52.272;9.580;2023-04-24T01:41:50;0.80;;;0.80;;
21166;SDS011;10741;52.272;9.580;2023-04-24T01:44:20;0.70;;;0.70;;
21166;SDS011;10741;52.272;9.580;2023-04-24T01:46:46;1.10;;;1.00;;
21166;SDS011;10741;52.272;9.580;2023-04-24T01:49:12;0.93;;;0.87;;
21166;SDS011;10741;52.272;9.580;2023-04-24T01:51:37;0.60;;;0.60;;
21166;SDS011;10741;52.272;9.580;2023-04-24T01:54:03;1.47;;;0.80;;
21166;SDS011;10741;52.272;9.580;2023-04-24T01:56:30;0.97;;;0.93;;
21166;SDS011;10741;52.272;9.580;2023-04-24T01:58:58;0.80;;;0.80;;
21166;SDS011;10741;52.272;9.580;2023-04-24T02:01:25;1.50;;;1.00;;
21166;SDS011;10741;52.272;9.580;2023-04-24T02:03:51;1.30;;;1.03;;
21166;SDS011;10741;52.272;9.580;2023-04-24T02:06:16;1.47;;;1.00;;
21166;SDS011;10741;52.272;9.580;2023-04-24T02:08:42;1.30;;;0.90;;
21166;SDS011;10741;52.272;9.580;2023-04-24T02:11:08;0.90;;;0.90;;
21166;SDS011;10741;52.272;9.580;2023-04-24T02:13:34;1.30;;;0.97;;
21166;SDS011;10741;52.272;9.580;2023-04-24T02:16:00;2.00;;;1.10;;
21166;SDS011;10741;52.272;9.580;2023-04-24T02:18:26;1.70;;;1.10;;
21166;SDS011;10741;52.272;9.580;2023-04-24T02:20:52;1.27;;;1.17;;
21166;SDS011;10741;52.272;9.580;2023-04-24T02:23:18;2.67;;;1.10;;
21166;SDS011;10741;52.272;9.580;2023-04-24T02:25:43;1.47;;;1.20;;
21166;SDS011;10741;52.272;9.580;2023-04-24T02:28:09;3.00;;;1.10;;
21166;SDS011;10741;52.272;9.580;2023-04-24T02:30:35;1.53;;;0.90;;
21166;SDS011;10741;52.272;9.580;2023-04-24T02:33:00;1.00;;;0.97;;
21166;SDS011;10741;52.272;9.580;2023-04-24T02:35:26;1.67;;;0.70;;
21166;SDS011;10741;52.272;9.580;2023-04-24T02:37:52;0.90;;;0.87;;
21166;SDS011;10741;52.272;9.580;2023-04-24T02:40:18;1.33;;;0.80;;
21166;SDS011;10741;52.272;9.580;2023-04-24T02:42:43;0.87;;;0.80;;
21166;SDS011;10741;52.272;9.580;2023-04-24T02:45:09;1.33;;;0.70;;
21166;SDS011;10741;52.272;9.580;2023-04-24T02:47:35;1.93;;;0.80;;
21166;SDS011;10741;52.272;9.580;2023-04-24T02:50:02;0.90;;;0.90;;
21166;SDS011;10741;52.272;9.580;2023-04-24T02:52:28;0.83;;;0.83;;
21166;SDS011;10741;52.272;9.580;2023-04-24T02:54:53;1.17;;;0.60;;
21166;SDS011;10741;52.272;9.580;2023-04-24T02:57:19;1.43;;;0.80;;
21166;SDS011;10741;52.272;9.580;2023-04-24T02:59:45;2.20;;;0.90;;
21166;SDS011;10741;52.272;9.580;2023-04-24T03:02:11;1.37;;;0.70;;
21166;SDS011;10741;52.272;9.580;2023-04-24T03:04:36;0.80;;;0.80;;
21166;SDS011;10741;52.272;9.580;2023-04-24T03:07:02;0.83;;;0.70;;
21166;SDS011;10741;52.272;9.580;2023-04-24T03:09:28;0.80;;;0.80;;
21166;SDS011;10741;52.272;9.580;2023-04-24T03:11:53;1.23;;;0.80;;
21166;SDS011;10741;52.272;9.580;2023-04-24T03:14:20;1.07;;;0.90;;
21166;SDS011;10741;52.272;9.580;2023-04-24T03:16:46;1.00;;;0.90;;
21166;SDS011;10741;52.272;9.580;2023-04-24T03:19:11;0.93;;;0.80;;
21166;SDS011;10741;52.272;9.580;2023-04-24T03:21:38;0.70;;;0.70;;
21166;SDS011;10741;52.272;9.580;2023-04-24T03:24:06;0.67;;;0.67;;
21166;SDS011;10741;52.272;9.580;2023-04-24T03:26:35;1.50;;;0.80;;
21166;SDS011;10741;52.272;9.580;2023-04-24T03:29:01;0.80;;;0.80;;
21166;SDS011;10741;52.272;9.580;2023-04-24T03:31:26;1.03;;;0.93;;
21166;SDS011;10741;52.272;9.580;2023-04-24T03:33:52;1.07;;;1.07;;
21166;SDS011;10741;52.272;9.580;2023-04-24T03:36:18;0.70;;;0.60;;
21166;SDS011;10741;52.272;9.580;2023-04-24T03:38:44;1.10;;;1.00;;
21166;SDS011;10741;52.272;9.580;2023-04-24T03:41:10;2.40;;;1.07;;
21166;SDS011;10741;52.272;9.580;2023-04-24T03:43:36;0.70;;;0.70;;
21166;SDS011;10741;52.272;9.580;2023-04-24T03:46:03;0.80;;;0.80;;
21166;SDS011;10741;52.272;9.580;2023-04-24T03:48:29;1.47;;;1.10;;
21166;SDS011;10741;52.272;9.580;2023-04-24T03:50:55;0.80;;;0.80;;
21166;SDS011;10741;52.272;9.580;2023-04-24T03:53:21;1.00;;;0.90;;
21166;SDS011;10741;52.272;9.580;2023-04-24T03:55:47;1.10;;;0.80;;
21166;SDS011;10741;52.272;9.580;2023-04-24T03:58:12;0.87;;;0.80;;
21166;SDS011;10741;52.272;9.580;2023-04-24T04:00:41;0.87;;;0.87;;
21166;SDS011;10741;52.272;9.580;2023-04-24T04:03:07;1.10;;;0.80;;
21166;SDS011;10741;52.272;9.580;2023-04-24T04:05:32;0.87;;;0.80;;
21166;SDS011;10741;52.272;9.580;2023-04-24T04:07:58;1.37;;;0.97;;
21166;SDS011;10741;52.272;9.580;2023-04-24T04:10:24;1.60;;;0.80;;
21166;SDS011;10741;52.272;9.580;2023-04-24T04:12:51;0.67;;;0.67;;
21166;SDS011;10741;52.272;9.580;2023-04-24T04:15:16;0.90;;;0.67;;
21166;SDS011;10741;52.272;9.580;2023-04-24T04:17:42;1.63;;;0.70;;
21166;SDS011;10741;52.272;9.580;2023-04-24T04:20:08;0.93;;;0.70;;
21166;SDS011;10741;52.272;9.580;2023-04-24T04:22:35;0.90;;;0.90;;
21166;SDS011;10741;52.272;9.580;2023-04-24T04:25:02;0.90;;;0.70;;
21166;SDS011;10741;52.272;9.580;2023-04-24T04:27:28;0.80;;;0.80;;
21166;SDS011;10741;52.272;9.580;2023-04-24T04:29:57;1.50;;;0.80;;
21166;SDS011;10741;52.272;9.580;2023-04-24T04:32:26;1.67;;;0.90;;
21166;SDS011;10741;52.272;9.580;2023-04-24T04:34:52;0.67;;;0.67;;
21166;SDS011;10741;52.272;9.580;2023-04-24T04:37:18;2.50;;;0.80;;
21166;SDS011;10741;52.272;9.580;2023-04-24T04:39:44;1.13;;;0.87;;
21166;SDS011;10741;52.272;9.580;2023-04-24T04:42:09;0.90;;;0.70;;
21166;SDS011;10741;52.272;9.580;2023-04-24T04:44:35;0.90;;;0.90;;
21166;SDS011;10741;52.272;9.580;2023-04-24T04:47:01;0.80;;;0.73;;
21166;SDS011;10741;52.272;9.580;2023-04-24T04:49:30;1.23;;;1.00;;
21166;SDS011;10741;52.272;9.580;2023-04-24T04:51:56;1.00;;;0.90;;
21166;SDS011;10741;52.272;9.580;2023-04-24T04:54:22;2.23;;;1.00;;
21166;SDS011;10741;52.272;9.580;2023-04-24T04:56:51;1.10;;;1.00;;
21166;SDS011;10741;52.272;9.580;2023-04-24T04:59:17;1.77;;;0.80;;
21166;SDS011;10741;52.272;9.580;2023-04-24T05:01:42;0.73;;;0.73;;
21166;SDS011;10741;52.272;9.580;2023-04-24T05:04:08;0.93;;;0.93;;
21166;SDS011;10741;52.272;9.580;2023-04-24T05:06:34;1.20;;;1.07;;
21166;SDS011;10741;52.272;9.580;2023-04-24T05:09:00;1.63;;;1.00;;
21166;SDS011;10741;52.272;9.580;2023-04-24T05:11:25;1.20;;;1.10;;
21166;SDS011;10741;52.272;9.580;2023-04-24T05:13:51;2.27;;;0.90;;
21166;SDS011;10741;52.272;9.580;2023-04-24T05:16:17;1.27;;;1.10;;
21166;SDS011;10741;52.272;9.580;2023-04-24T05:18:43;1.20;;;1.10;;
21166;SDS011;10741;52.272;9.580;2023-04-24T05:21:08;1.53;;;1.00;;
21166;SDS011;10741;52.272;9.580;2023-04-24T05:23:34;5.10;;;1.40;;
21166;SDS011;10741;52.272;9.580;2023-04-24T05:26:00;1.17;;;1.00;;
21166;SDS011;10741;52.272;9.580;2023-04-24T05:28:26;2.00;;;1.80;;
21166;SDS011;10741;52.272;9.580;2023-04-24T05:30:55;1.77;;;1.50;;
21166;SDS011;10741;52.272;9.580;2023-04-24T05:33:24;1.60;;;1.50;;
21166;SDS011;10741;52.272;9.580;2023-04-24T05:35:50;1.50;;;1.40;;
21166;SDS011;10741;52.272;9.580;2023-04-24T05:38:16;3.63;;;1.70;;
21166;SDS011;10741;52.272;9.580;2023-04-24T05:40:44;1.83;;;1.43;;
21166;SDS011;10741;52.272;9.580;2023-04-24T05:43:11;2.27;;;1.33;;
21166;SDS011;10741;52.272;9.580;2023-04-24T05:45:37;1.40;;;1.30;;
21166;SDS011;10741;52.272;9.580;2023-04-24T05:48:03;1.50;;;1.40;;
21166;SDS011;10741;52.272;9.580;2023-04-24T05:50:29;2.37;;;1.40;;
21166;SDS011;10741;52.272;9.580;2023-04-24T05:52:55;1.20;;;1.10;;
21166;SDS011;10741;52.272;9.580;2023-04-24T05:55:23;1.23;;;1.13;;
21166;SDS011;10741;52.272;9.580;2023-04-24T05:57:52;1.20;;;1.10;;
21166;SDS011;10741;52.272;9.580;2023-04-24T06:00:18;1.90;;;1.00;;
21166;SDS011;10741;52.272;9.580;2023-04-24T06:02:45;1.80;;;1.10;;
21166;SDS011;10741;52.272;9.580;2023-04-24T06:05:11;0.80;;;0.70;;
21166;SDS011;10741;52.272;9.580;2023-04-24T06:07:37;0.97;;;0.93;;
21166;SDS011;10741;52.272;9.580;2023-04-24T06:10:02;1.30;;;1.03;;
21166;SDS011;10741;52.272;9.580;2023-04-24T06:12:28;2.27;;;1.00;;
21166;SDS011;10741;52.272;9.580;2023-04-24T06:14:54;1.43;;;1.00;;
21166;SDS011;10741;52.272;9.580;2023-04-24T06:17:23;1.60;;;1.50;;
21166;SDS011;10741;52.272;9.580;2023-04-24T06:19:48;1.57;;;1.47;;
21166;SDS011;10741;52.272;9.580;2023-04-24T06:22:14;4.07;;;1.97;;
21166;SDS011;10741;52.272;9.580;2023-04-24T06:24:40;2.33;;;2.13;;
21166;SDS011;10741;52.272;9.580;2023-04-24T06:27:06;2.30;;;2.10;;
21166;SDS011;10741;52.272;9.580;2023-04-24T06:29:33;2.13;;;2.03;;
21166;SDS011;10741;52.272;9.580;2023-04-24T06:31:59;2.40;;;2.20;;
21166;SDS011;10741;52.272;9.580;2023-04-24T06:34:25;2.53;;;2.33;;
21166;SDS011;10741;52.272;9.580;2023-04-24T06:36:50;4.20;;;3.00;;
21166;SDS011;10741;52.272;9.580;2023-04-24T06:39:16;3.63;;;3.33;;
21166;SDS011;10741;52.272;9.580;2023-04-24T06:41:42;5.13;;;3.73;;
21166;SDS011;10741;52.272;9.580;2023-04-24T06:44:08;3.67;;;3.37;;
21166;SDS011;10741;52.272;9.580;2023-04-24T06:46:33;4.27;;;3.87;;
21166;SDS011;10741;52.272;9.580;2023-04-24T06:48:59;6.23;;;4.30;;
21166;SDS011;10741;52.272;9.580;2023-04-24T06:51:25;4.57;;;4.17;;
21166;SDS011;10741;52.272;9.580;2023-04-24T06:53:52;4.60;;;4.20;;
21166;SDS011;10741;52.272;9.580;2023-04-24T06:56:18;4.97;;;4.00;;
21166;SDS011;10741;52.272;9.580;2023-04-24T06:58:45;5.60;;;4.60;;
21166;SDS011;10741;52.272;9.580;2023-04-24T07:01:11;4.53;;;4.13;;
21166;SDS011;10741;52.272;9.580;2023-04-24T07:03:37;4.90;;;4.27;;
21166;SDS011;10741;52.272;9.580;2023-04-24T07:06:03;4.40;;;4.00;;
21166;SDS011;10741;52.272;9.580;2023-04-24T07:08:30;5.13;;;4.63;;
21166;SDS011;10741;52.272;9.580;2023-04-24T07:10:56;5.47;;;4.73;;
21166;SDS011;10741;52.272;9.580;2023-04-24T07:13:22;7.47;;;4.63;;
21166;SDS011;10741;52.272;9.580;2023-04-24T07:15:48;5.13;;;4.63;;
21166;SDS011;10741;52.272;9.580;2023-04-24T07:18:19;6.47;;;4.67;;
21166;SDS011;10741;52.272;9.580;2023-04-24T07:20:45;5.70;;;4.33;;
21166;SDS011;10741;52.272;9.580;2023-04-24T07:23:11;5.17;;;4.67;;
21166;SDS011;10741;52.272;9.580;2023-04-24T07:25:37;4.80;;;4.40;;
21166;SDS011;10741;52.272;9.580;2023-04-24T07:28:03;4.70;;;4.27;;
21166;SDS011;10741;52.272;9.580;2023-04-24T07:30:30;5.23;;;4.70;;
21166;SDS011;10741;52.272;9.580;2023-04-24T07:32:57;5.77;;;4.60;;
21166;SDS011;10741;52.272;9.580;2023-04-24T07:35:24;5.93;;;4.40;;
21166;SDS011;10741;52.272;9.580;2023-04-24T07:37:51;6.13;;;4.90;;
21166;SDS011;10741;52.272;9.580;2023-04-24T07:40:20;5.67;;;5.07;;
21166;SDS011;10741;52.272;9.580;2023-04-24T07:42:47;6.93;;;5.70;;
21166;SDS011;10741;52.272;9.580;2023-04-24T07:45:15;5.80;;;5.20;;
21166;SDS011;10741;52.272;9.580;2023-04-24T07:47:42;6.30;;;4.87;;
21166;SDS011;10741;52.272;9.580;2023-04-24T07:50:11;5.60;;;5.00;;
21166;SDS011;10741;52.272;9.580;2023-04-24T07:52:37;7.30;;;5.10;;
21166;SDS011;10741;52.272;9.580;2023-04-24T07:55:03;5.23;;;4.73;;
21166;SDS011;10741;52.272;9.580;2023-04-24T07:57:30;6.90;;;5.33;;
21166;SDS011;10741;52.272;9.580;2023-04-24T07:59:55;6.17;;;5.20;;
21166;SDS011;10741;52.272;9.580;2023-04-24T08:02:21;7.47;;;5.27;;
21166;SDS011;10741;52.272;9.580;2023-04-24T08:04:51;6.57;;;5.47;;
21166;SDS011;10741;52.272;9.580;2023-04-24T08:07:19;9.17;;;5.80;;
21166;SDS011;10741;52.272;9.580;2023-04-24T08:09:45;6.87;;;6.00;;
21166;SDS011;10741;52.272;9.580;2023-04-24T08:12:11;6.90;;;5.97;;
21166;SDS011;10741;52.272;9.580;2023-04-24T08:14:36;7.47;;;6.33;;
21166;SDS011;10741;52.272;9.580;2023-04-24T08:17:02;8.00;;;6.27;;
21166;SDS011;10741;52.272;9.580;2023-04-24T08:19:28;7.33;;;6.63;;
21166;SDS011;10741;52.272;9.580;2023-04-24T08:21:54;6.20;;;5.60;;
21166;SDS011;10741;52.272;9.580;2023-04-24T08:24:20;6.27;;;5.67;;
21166;SDS011;10741;52.272;9.580;2023-04-24T08:26:47;6.53;;;5.43;;
21166;SDS011;10741;52.272;9.580;2023-04-24T08:29:15;6.37;;;5.57;;
21166;SDS011;10741;52.272;9.580;2023-04-24T08:31:41;6.63;;;5.33;;
21166;SDS011;10741;52.272;9.580;2023-04-24T08:34:07;5.77;;;4.83;;
21166;SDS011;10741;52.272;9.580;2023-04-24T08:36:34;4.93;;;4.27;;
21166;SDS011;10741;52.272;9.580;2023-04-24T08:39:00;4.50;;;3.77;;
21166;SDS011;10741;52.272;9.580;2023-04-24T08:41:26;5.03;;;3.87;;
21166;SDS011;10741;52.272;9.580;2023-04-24T08:43:52;3.70;;;3.30;;
21166;SDS011;10741;52.272;9.580;2023-04-24T08:46:20;3.23;;;2.80;;
21166;SDS011;10741;52.272;9.580;2023-04-24T08:48:46;3.50;;;2.70;;
21166;SDS011;10741;52.272;9.580;2023-04-24T08:51:13;3.03;;;2.73;;
21166;SDS011;10741;52.272;9.580;2023-04-24T08:53:39;2.93;;;2.63;;
21166;SDS011;10741;52.272;9.580;2023-04-24T08:56:05;2.83;;;2.53;;
21166;SDS011;10741;52.272;9.580;2023-04-24T08:58:32;2.70;;;2.50;;
21166;SDS011;10741;52.272;9.580;2023-04-24T09:00:58;2.97;;;2.70;;
21166;SDS011;10741;52.272;9.580;2023-04-24T09:03:26;2.83;;;2.50;;
21166;SDS011;10741;52.272;9.580;2023-04-24T09:05:53;3.43;;;3.10;;
21166;SDS011;10741;52.272;9.580;2023-04-24T09:08:23;4.47;;;2.70;;
21166;SDS011;10741;52.272;9.580;2023-04-24T09:10:50;5.13;;;2.90;;
21166;SDS011;10741;52.272;9.580;2023-04-24T09:13:16;3.80;;;2.87;;
21166;SDS011;10741;52.272;9.580;2023-04-24T09:15:43;3.50;;;2.60;;
21166;SDS011;10741;52.272;9.580;2023-04-24T09:18:09;3.60;;;2.80;;
21166;SDS011;10741;52.272;9.580;2023-04-24T09:20:35;3.40;;;3.10;;
21166;SDS011;10741;52.272;9.580;2023-04-24T09:23:29;3.10;;;2.80;;
21166;SDS011;10741;52.272;9.580;2023-04-24T09:25:56;3.63;;;3.00;;
21166;SDS011;10741;52.272;9.580;2023-04-24T09:28:29;4.40;;;3.17;;
21166;SDS011;10741;52.272;9.580;2023-04-24T09:31:08;4.10;;;3.20;;
21166;SDS011;10741;52.272;9.580;2023-04-24T09:33:39;4.23;;;2.87;;
21166;SDS011;10741;52.272;9.580;2023-04-24T09:36:05;3.43;;;3.00;;
21166;SDS011;10741;52.272;9.580;2023-04-24T09:38:37;4.53;;;2.73;;
21166;SDS011;10741;52.272;9.580;2023-04-24T09:41:07;3.03;;;2.73;;
21166;SDS011;10741;52.272;9.580;2023-04-24T09:43:33;4.03;;;2.90;;
21166;SDS011;10741;52.272;9.580;2023-04-24T09:46:04;2.67;;;2.47;;
21166;SDS011;10741;52.272;9.580;2023-04-24T09:48:35;3.47;;;3.17;;
21166;SDS011;10741;52.272;9.580;2023-04-24T09:51:03;3.77;;;2.90;;
21166;SDS011;10741;52.272;9.580;2023-04-24T09:53:31;3.47;;;3.00;;
21166;SDS011;10741;52.272;9.580;2023-04-24T09:56:09;3.57;;;2.67;;
21166;SDS011;10741;52.272;9.580;2023-04-24T09:58:37;3.73;;;2.73;;
21166;SDS011;10741;52.272;9.580;2023-04-24T10:01:03;2.80;;;2.60;;
21166;SDS011;10741;52.272;9.580;2023-04-24T10:03:30;3.37;;;2.50;;
21166;SDS011;10741;52.272;9.580;2023-04-24T10:06:00;2.83;;;2.00;;
21166;SDS011;10741;52.272;9.580;2023-04-24T10:08:27;3.33;;;2.10;;
21166;SDS011;10741;52.272;9.580;2023-04-24T10:10:59;2.00;;;1.90;;
21166;SDS011;10741;52.272;9.580;2023-04-24T10:13:26;2.20;;;2.00;;
21166;SDS011;10741;52.272;9.580;2023-04-24T10:15:52;2.80;;;1.90;;
21166;SDS011;10741;52.272;9.580;2023-04-24T10:18:19;1.93;;;1.80;;
21166;SDS011;10741;52.272;9.580;2023-04-24T10:20:46;2.17;;;2.03;;
21166;SDS011;10741;52.272;9.580;2023-04-24T10:23:13;3.07;;;1.80;;
21166;SDS011;10741;52.272;9.580;2023-04-24T10:25:39;2.70;;;2.00;;
21166;SDS011;10741;52.272;9.580;2023-04-24T10:28:05;3.93;;;2.20;;
21166;SDS011;10741;52.272;9.580;2023-04-24T10:30:34;1.77;;;1.67;;
21166;SDS011;10741;52.272;9.580;2023-04-24T10:33:03;2.00;;;1.90;;
21166;SDS011;10741;52.272;9.580;2023-04-24T10:35:31;2.77;;;1.70;;
21166;SDS011;10741;52.272;9.580;2023-04-24T10:38:06;1.93;;;1.73;;
21166;SDS011;10741;52.272;9.580;2023-04-24T10:40:36;2.20;;;1.97;;
21166;SDS011;10741;52.272;9.580;2023-04-24T10:43:03;2.10;;;1.90;;
21166;SDS011;10741;52.272;9.580;2023-04-24T10:45:31;2.20;;;2.00;;
21166;SDS011;10741;52.272;9.580;2023-04-24T10:50:51;2.97;;;1.80;;
21166;SDS011;10741;52.272;9.580;2023-04-24T10:53:19;2.83;;;2.20;;
21166;SDS011;10741;52.272;9.580;2023-04-24T10:55:49;2.37;;;1.87;;
21166;SDS011;10741;52.272;9.580;2023-04-24T10:58:24;2.27;;;2.10;;
21166;SDS011;10741;52.272;9.580;2023-04-24T11:01:00;2.13;;;1.93;;
21166;SDS011;10741;52.272;9.580;2023-04-24T11:03:27;1.90;;;1.70;;
21166;SDS011;10741;52.272;9.580;2023-04-24T11:06:01;2.70;;;1.83;;
21166;SDS011;10741;52.272;9.580;2023-04-24T11:08:39;1.80;;;1.70;;
21166;SDS011;10741;52.272;9.580;2023-04-24T11:11:10;1.83;;;1.40;;
21166;SDS011;10741;52.272;9.580;2023-04-24T11:19:02;1.93;;;1.50;;
21166;SDS011;10741;52.272;9.580;2023-04-24T11:21:38;1.30;;;1.20;;
21166;SDS011;10741;52.272;9.580;2023-04-24T11:29:39;2.03;;;1.10;;
21166;SDS011;10741;52.272;9.580;2023-04-24T11:32:34;1.87;;;1.07;;
21166;SDS011;10741;52.272;9.580;2023-04-24T11:35:08;1.43;;;1.30;;
21166;SDS011;10741;52.272;9.580;2023-04-24T11:37:43;2.40;;;0.83;;
21166;SDS011;10741;52.272;9.580;2023-04-24T11:40:14;0.90;;;0.90;;
21166;SDS011;10741;52.272;9.580;2023-04-24T11:42:45;1.97;;;0.80;;
21166;SDS011;10741;52.272;9.580;2023-04-24T11:45:12;0.80;;;0.80;;
21166;SDS011;10741;52.272;9.580;2023-04-24T11:47:40;0.60;;;0.60;;
21166;SDS011;10741;52.272;9.580;2023-04-24T11:50:08;0.73;;;0.63;;
21166;SDS011;10741;52.272;9.580;2023-04-24T11:52:39;0.73;;;0.73;;
21166;SDS011;10741;52.272;9.580;2023-04-24T11:55:07;0.50;;;0.50;;
21166;SDS011;10741;52.272;9.580;2023-04-24T11:57:50;1.57;;;0.77;;
21166;SDS011;10741;52.272;9.580;2023-04-24T12:00:31;0.60;;;0.60;;
21166;SDS011;10741;52.272;9.580;2023-04-24T12:03:03;1.10;;;1.00;;
21166;SDS011;10741;52.272;9.580;2023-04-24T12:05:30;1.33;;;1.07;;
21166;SDS011;10741;52.272;9.580;2023-04-24T12:07:56;0.93;;;0.60;;
21166;SDS011;10741;52.272;9.580;2023-04-24T12:10:23;0.70;;;0.70;;
21166;SDS011;10741;52.272;9.580;2023-04-24T12:12:50;0.70;;;0.70;;
21166;SDS011;10741;52.272;9.580;2023-04-24T12:15:17;0.60;;;0.60;;
21166;SDS011;10741;52.272;9.580;2023-04-24T12:17:46;0.70;;;0.70;;
21166;SDS011;10741;52.272;9.580;2023-04-24T12:20:13;0.50;;;0.50;;
21166;SDS011;10741;52.272;9.580;2023-04-24T12:22:57;1.67;;;0.50;;
21166;SDS011;10741;52.272;9.580;2023-04-24T12:25:25;0.50;;;0.50;;
21166;SDS011;10741;52.272;9.580;2023-04-24T12:27:57;0.50;;;0.50;;
21166;SDS011;10741;52.272;9.580;2023-04-24T12:30:46;0.63;;;0.63;;
21166;SDS011;10741;52.272;9.580;2023-04-24T12:33:17;0.80;;;0.80;;
21166;SDS011;10741;52.272;9.580;2023-04-24T12:35:47;0.70;;;0.70;;
21166;SDS011;10741;52.272;9.580;2023-04-24T12:38:16;1.10;;;1.00;;
21166;SDS011;10741;52.272;9.580;2023-04-24T12:40:46;0.80;;;0.80;;
21166;SDS011;10741;52.272;9.580;2023-04-24T12:43:16;0.97;;;0.97;;
21166;SDS011;10741;52.272;9.580;2023-04-24T12:45:43;0.90;;;0.73;;
21166;SDS011;10741;52.272;9.580;2023-04-24T12:48:10;0.87;;;0.87;;
21166;SDS011;10741;52.272;9.580;2023-04-24T12:50:36;1.00;;;0.90;;
21166;SDS011;10741;52.272;9.580;2023-04-24T12:53:02;1.07;;;0.97;;
21166;SDS011;10741;52.272;9.580;2023-04-24T12:55:28;3.60;;;0.97;;
21166;SDS011;10741;52.272;9.580;2023-04-24T12:57:54;1.60;;;1.00;;
21166;SDS011;10741;52.272;9.580;2023-04-24T13:00:21;1.27;;;1.17;;
21166;SDS011;10741;52.272;9.580;2023-04-24T13:02:47;1.00;;;1.00;;
21166;SDS011;10741;52.272;9.580;2023-04-24T13:05:12;2.20;;;0.90;;
21166;SDS011;10741;52.272;9.580;2023-04-24T13:07:39;1.13;;;0.93;;
21166;SDS011;10741;52.272;9.580;2023-04-24T13:10:05;0.90;;;0.90;;
21166;SDS011;10741;52.272;9.580;2023-04-24T13:12:32;1.00;;;0.97;;
21166;SDS011;10741;52.272;9.580;2023-04-24T13:15:07;0.73;;;0.73;;
21166;SDS011;10741;52.272;9.580;2023-04-24T13:17:33;1.23;;;0.73;;
21166;SDS011;10741;52.272;9.580;2023-04-24T13:19:59;0.80;;;0.80;;
21166;SDS011;10741;52.272;9.580;2023-04-24T13:22:25;0.77;;;0.77;;
21166;SDS011;10741;52.272;9.580;2023-04-24T13:24:51;0.67;;;0.60;;
21166;SDS011;10741;52.272;9.580;2023-04-24T13:27:17;0.70;;;0.70;;
21166;SDS011;10741;52.272;9.580;2023-04-24T13:29:43;0.60;;;0.60;;
21166;SDS011;10741;52.272;9.580;2023-04-24T13:32:09;0.60;;;0.60;;
21166;SDS011;10741;52.272;9.580;2023-04-24T13:34:35;0.70;;;0.70;;
21166;SDS011;10741;52.272;9.580;2023-04-24T13:37:02;0.80;;;0.80;;
21166;SDS011;10741;52.272;9.580;2023-04-24T13:39:30;1.10;;;1.00;;
21166;SDS011;10741;52.272;9.580;2023-04-24T13:41:58;1.33;;;0.80;;
21166;SDS011;10741;52.272;9.580;2023-04-24T13:44:24;0.90;;;0.43;;
21166;SDS011;10741;52.272;9.580;2023-04-24T13:46:51;0.40;;;0.40;;
21166;SDS011;10741;52.272;9.580;2023-04-24T13:49:19;0.60;;;0.60;;
21166;SDS011;10741;52.272;9.580;2023-04-24T13:51:45;1.40;;;0.60;;
21166;SDS011;10741;52.272;9.580;2023-04-24T13:54:11;0.40;;;0.40;;
21166;SDS011;10741;52.272;9.580;2023-04-24T13:56:38;0.50;;;0.50;;
21166;SDS011;10741;52.272;9.580;2023-04-24T13:59:05;1.70;;;0.70;;
21166;SDS011;10741;52.272;9.580;2023-04-24T14:01:31;2.77;;;0.90;;
21166;SDS011;10741;52.272;9.580;2023-04-24T14:03:57;0.90;;;0.80;;
21166;SDS011;10741;52.272;9.580;2023-04-24T14:06:23;1.00;;;1.00;;
21166;SDS011;10741;52.272;9.580;2023-04-24T14:08:49;0.90;;;0.90;;
21166;SDS011;10741;52.272;9.580;2023-04-24T14:11:15;0.93;;;0.90;;
21166;SDS011;10741;52.272;9.580;2023-04-24T14:13:41;1.03;;;0.90;;
21166;SDS011;10741;52.272;9.580;2023-04-24T14:16:08;2.03;;;1.10;;
21166;SDS011;10741;52.272;9.580;2023-04-24T14:18:35;1.13;;;1.10;;
21166;SDS011;10741;52.272;9.580;2023-04-24T14:21:01;1.50;;;1.40;;
21166;SDS011;10741;52.272;9.580;2023-04-24T14:23:28;1.57;;;1.10;;
21166;SDS011;10741;52.272;9.580;2023-04-24T14:25:54;1.60;;;1.40;;
21166;SDS011;10741;52.272;9.580;2023-04-24T14:28:20;3.83;;;1.60;;
21166;SDS011;10741;52.272;9.580;2023-04-24T14:30:46;2.97;;;1.80;;
21166;SDS011;10741;52.272;9.580;2023-04-24T14:33:12;2.87;;;1.90;;
21166;SDS011;10741;52.272;9.580;2023-04-24T14:35:42;4.47;;;2.23;;
21166;SDS011;10741;52.272;9.580;2023-04-24T14:38:08;3.57;;;2.17;;
21166;SDS011;10741;52.272;9.580;2023-04-24T14:40:34;3.13;;;2.30;;
21166;SDS011;10741;52.272;9.580;2023-04-24T14:43:00;3.47;;;2.20;;
21166;SDS011;10741;52.272;9.580;2023-04-24T14:45:26;3.80;;;2.30;;
21166;SDS011;10741;52.272;9.580;2023-04-24T14:47:52;4.53;;;2.40;;
21166;SDS011;10741;52.272;9.580;2023-04-24T14:50:18;5.97;;;3.00;;
21166;SDS011;10741;52.272;9.580;2023-04-24T14:52:45;4.10;;;2.80;;
21166;SDS011;10741;52.272;9.580;2023-04-24T14:55:11;2.73;;;2.20;;
21166;SDS011;10741;52.272;9.580;2023-04-24T14:57:37;5.17;;;2.57;;
21166;SDS011;10741;52.272;9.580;2023-04-24T15:00:03;3.63;;;2.33;;
21166;SDS011;10741;52.272;9.580;2023-04-24T15:02:33;4.90;;;2.70;;